createdAt,value
2023-01-04T00:02:13.675Z,99562.25
2023-01-04T00:04:42.355Z,99556.03
2023-01-04T00:07:11.037Z,99560.38
2023-01-04T00:09:39.714Z,99551.50
2023-01-04T00:12:08.880Z,99556.88
2023-01-04T00:14:38.841Z,99553.34
2023-01-04T00:17:07.838Z,99540.91
2023-01-04T00:19:36.555Z,99549.81
2023-01-04T00:22:05.216Z,99539.91
2023-01-04T00:24:33.924Z,99539.06
2023-01-04T00:27:02.584Z,99539.06
2023-01-04T00:29:31.124Z,99542.72
2023-01-04T00:32:01.140Z,99544.44
2023-01-04T00:34:29.922Z,99542.59
2023-01-04T00:36:58.574Z,99538.22
2023-01-04T00:39:27.465Z,99538.22
2023-01-04T00:42:05.243Z,99541.75
2023-01-04T00:44:34.650Z,99536.38
2023-01-04T00:47:05.369Z,99533.69
2023-01-04T00:49:34.046Z,99538.22
2023-01-04T00:52:02.645Z,99545.41
2023-01-04T00:54:31.301Z,99538.22
2023-01-04T00:57:01.435Z,99528.44
2023-01-04T00:59:30.068Z,99534.66
2023-01-04T01:01:58.720Z,99531.97
2023-01-04T01:04:28.904Z,99533.81
2023-01-04T01:06:57.524Z,99531.97
2023-01-04T01:09:26.037Z,99530.28
2023-01-04T01:11:54.943Z,99536.50
2023-01-04T01:14:25.630Z,99539.19
2023-01-04T01:16:57.733Z,99539.19
2023-01-04T01:19:29.527Z,99541.88
2023-01-04T01:21:58.557Z,99541.03
2023-01-04T01:24:27.389Z,99539.34
2023-01-04T01:26:56.009Z,99546.41
2023-01-04T01:29:24.839Z,99542.88
2023-01-04T01:31:54.503Z,99547.25
2023-01-04T01:34:23.337Z,99550.09
2023-01-04T01:36:53.206Z,99554.47
2023-01-04T01:39:21.950Z,99542.88
2023-01-04T01:41:50.602Z,99550.09
2023-01-04T01:45:00.316Z,99548.38
2023-01-04T01:47:36.715Z,99538.47
2023-01-04T01:50:05.928Z,99542.03
2023-01-04T01:52:37.840Z,99539.34
2023-01-04T01:55:08.794Z,99535.66
2023-01-04T01:57:38.953Z,99541.16
2023-01-04T02:00:10.178Z,99539.34
2023-01-04T02:02:39.636Z,99534.97
2023-01-04T02:05:09.059Z,99533.13
2023-01-04T02:07:39.128Z,99525.94
2023-01-04T02:10:09.146Z,99527.75
2023-01-04T02:12:37.764Z,99524.09
2023-01-04T02:15:07.971Z,99528.63
2023-01-04T02:17:41.808Z,99523.25
2023-01-04T02:20:29.505Z,99525.06
2023-01-04T02:23:37.529Z,99523.38
2023-01-04T02:27:02.007Z,99519.84
2023-01-04T02:30:13.698Z,99519.84
2023-01-04T02:33:01.223Z,99519.84
2023-01-04T02:35:33.336Z,99512.75
2023-01-04T02:38:07.304Z,99506.41
2023-01-04T02:40:43.411Z,99505.56
2023-01-04T02:43:37.043Z,99502.00
2023-01-04T02:46:07.968Z,99502.88
2023-01-04T02:49:07.446Z,99499.34
2023-01-04T02:51:37.354Z,99493.97
2023-01-04T02:54:07.805Z,99498.34
2023-01-04T02:57:06.294Z,99481.41
2023-01-04T02:59:49.745Z,99487.75
2023-01-04T03:02:48.865Z,99495.81
2023-01-04T03:05:42.476Z,99484.09
2023-01-04T03:08:15.857Z,99484.09
2023-01-04T03:10:48.337Z,99484.09
2023-01-04T03:13:18.969Z,99478.84
2023-01-04T03:15:51.254Z,99477.84
2023-01-04T03:18:22.395Z,99468.94
2023-01-04T03:20:52.495Z,99471.63
2023-01-04T03:23:40.237Z,99472.47
2023-01-04T03:26:24.738Z,99464.41
2023-01-04T03:29:11.092Z,99448.31
2023-01-04T03:32:00.533Z,99455.50
2023-01-04T03:34:46.384Z,99449.31
2023-01-04T03:37:18.434Z,99449.31
2023-01-04T03:40:18.490Z,99442.94
2023-01-04T03:43:07.857Z,99433.19
2023-01-04T03:45:59.159Z,99438.56
2023-01-04T03:48:31.704Z,99439.41
2023-01-04T03:51:09.542Z,99425.97
2023-01-04T03:53:46.883Z,99436.72
2023-01-04T03:56:15.539Z,99428.81
2023-01-04T03:58:44.051Z,99427.81
2023-01-04T04:01:12.814Z,99425.13
2023-01-04T04:03:59.105Z,99423.44
2023-01-04T04:06:45.446Z,99425.13
2023-01-04T04:09:15.468Z,99430.63
2023-01-04T04:11:44.101Z,99426.97
2023-01-04T04:14:12.625Z,99423.44
2023-01-04T04:16:41.386Z,99428.81
2023-01-04T04:19:09.978Z,99429.78
2023-01-04T04:21:38.763Z,99435.03
2023-01-04T04:24:08.307Z,99424.44
2023-01-04T04:26:38.260Z,99426.13
2023-01-04T04:29:06.757Z,99416.22
2023-01-04T04:31:35.502Z,99420.75
2023-01-04T04:34:04.163Z,99411.84
2023-01-04T04:36:32.936Z,99403.78
2023-01-04T04:39:01.530Z,99411.00
2023-01-04T04:41:41.983Z,99395.03
2023-01-04T04:44:13.478Z,99397.56
2023-01-04T04:46:42.376Z,99397.56
2023-01-04T04:49:11.240Z,99400.25
2023-01-04T04:51:39.959Z,99397.56
2023-01-04T04:54:08.910Z,99389.69
2023-01-04T04:56:38.038Z,99395.03
2023-01-04T04:59:06.925Z,99389.69
2023-01-04T05:01:37.158Z,99380.78
2023-01-04T05:04:06.421Z,99373.56
2023-01-04T05:06:35.135Z,99377.09
2023-01-04T05:09:03.661Z,99370.88
2023-01-04T05:11:49.938Z,99366.34
2023-01-04T05:14:18.483Z,99368.03
2023-01-04T05:16:48.824Z,99366.19
2023-01-04T05:19:17.486Z,99367.19
2023-01-04T05:21:46.252Z,99361.81
2023-01-04T05:24:15.130Z,99357.28
2023-01-04T05:26:43.763Z,99358.13
2023-01-04T05:29:32.328Z,99357.28
2023-01-04T05:32:01.590Z,99356.44
2023-01-04T05:34:30.178Z,99353.75
2023-01-04T05:36:58.840Z,99342.19
2023-01-04T05:39:27.455Z,99343.00
2023-01-04T05:42:13.711Z,99359.97
2023-01-04T05:44:42.418Z,99355.59
2023-01-04T05:47:15.159Z,99342.19
2023-01-04T05:49:44.195Z,99346.53
2023-01-04T05:52:12.933Z,99343.00
2023-01-04T05:54:41.519Z,99339.63
2023-01-04T05:57:10.453Z,99339.50
2023-01-04T05:59:41.880Z,99338.78
2023-01-04T06:02:17.791Z,99336.25
2023-01-04T06:04:46.903Z,99338.06
2023-01-04T06:07:15.870Z,99339.63
2023-01-04T06:09:44.606Z,99344.84
2023-01-04T06:12:13.437Z,99337.50
2023-01-04T06:14:42.476Z,99342.56
2023-01-04T06:17:11.030Z,99336.50
2023-01-04T06:19:40.996Z,99338.88
2023-01-04T06:22:09.684Z,99327.44
2023-01-04T06:24:38.262Z,99326.47
2023-01-04T06:27:06.765Z,99328.44
2023-01-04T06:29:35.547Z,99331.13
2023-01-04T06:32:04.215Z,99329.88
2023-01-04T06:34:32.921Z,99336.50
2023-01-04T06:37:02.957Z,99328.44
2023-01-04T06:39:31.622Z,99327.31
2023-01-04T06:42:06.378Z,99337.91
2023-01-04T06:44:35.804Z,99340.28
2023-01-04T06:47:04.373Z,99343.81
2023-01-04T06:49:33.126Z,99327.31
2023-01-04T06:52:03.186Z,99318.41
2023-01-04T06:54:33.898Z,99307.81
2023-01-04T06:57:02.538Z,99298.91
2023-01-04T06:59:31.143Z,99305.28
2023-01-04T07:01:59.930Z,99306.97
2023-01-04T07:04:28.827Z,99298.91
2023-01-04T07:06:57.916Z,99295.38
2023-01-04T07:09:27.946Z,99296.91
2023-01-04T07:11:57.978Z,99294.22
2023-01-04T07:14:26.791Z,99283.50
2023-01-04T07:16:55.796Z,99282.66
2023-01-04T07:19:24.406Z,99279.09
2023-01-04T07:21:54.095Z,99287.16
2023-01-04T07:24:29.601Z,99290.84
2023-01-04T07:27:00.733Z,99289.69
2023-01-04T07:29:29.229Z,99283.50
2023-01-04T07:31:58.189Z,99283.31
2023-01-04T07:34:27.378Z,99282.47
2023-01-04T07:36:56.183Z,99289.25
2023-01-04T07:39:25.142Z,99284.03
2023-01-04T07:41:53.958Z,99288.25
2023-01-04T07:44:25.728Z,99288.25
2023-01-04T07:46:54.755Z,99289.41
2023-01-04T07:49:23.592Z,99305.69
2023-01-04T07:51:52.397Z,99297.63
2023-01-04T07:54:21.041Z,99292.25
2023-01-04T07:56:49.747Z,99299.31
2023-01-04T07:59:20.751Z,99297.63
2023-01-04T08:01:51.185Z,99290.41
2023-01-04T08:04:22.963Z,99282.78
2023-01-04T08:06:51.792Z,99282.88
2023-01-04T08:09:20.643Z,99284.88
2023-01-04T08:11:51.827Z,99281.34
2023-01-04T08:14:20.463Z,99273.28
2023-01-04T08:16:50.528Z,99275.81
2023-01-04T08:19:21.571Z,99265.09
2023-01-04T08:21:50.462Z,99265.09
2023-01-04T08:24:21.199Z,99264.06
2023-01-04T08:26:49.743Z,99272.13
2023-01-04T08:29:18.325Z,99276.66
2023-01-04T08:31:47.017Z,99278.53
2023-01-04T08:34:17.137Z,99267.59
2023-01-04T08:36:48.621Z,99263.06
2023-01-04T08:39:17.438Z,99257.69
2023-01-04T08:42:07.493Z,99263.25
2023-01-04T08:44:41.412Z,99252.50
2023-01-04T08:47:10.093Z,99253.34
2023-01-04T08:49:40.183Z,99247.97
2023-01-04T08:52:10.318Z,99246.13
2023-01-04T08:54:38.981Z,99245.13
2023-01-04T08:57:07.811Z,99232.69
2023-01-04T08:59:36.575Z,99232.53
2023-01-04T09:02:06.409Z,99221.81
2023-01-04T09:04:35.281Z,99220.97
2023-01-04T09:07:05.507Z,99214.59
2023-01-04T09:09:34.432Z,99219.13
2023-01-04T09:12:03.038Z,99219.25
2023-01-04T09:14:31.874Z,99221.81
2023-01-04T09:17:00.436Z,99212.75
2023-01-04T09:19:29.048Z,99211.91
2023-01-04T09:21:57.816Z,99218.09
2023-01-04T09:24:27.846Z,99212.59
2023-01-04T09:26:56.395Z,99211.75
2023-01-04T09:29:27.417Z,99199.31
2023-01-04T09:31:56.120Z,99188.56
2023-01-04T09:34:24.849Z,99188.25
2023-01-04T09:36:53.444Z,99187.41
2023-01-04T09:39:24.286Z,99184.91
2023-01-04T09:41:59.071Z,99177.44
2023-01-04T09:47:34.581Z,99153.66
2023-01-04T09:50:11.844Z,99151.97
2023-01-04T09:52:48.181Z,99151.97
2023-01-04T09:55:37.566Z,99142.75
2023-01-04T09:58:24.826Z,99143.81
2023-01-04T10:00:57.047Z,99142.31
2023-01-04T10:03:27.189Z,99121.41
2023-01-04T10:05:57.323Z,99112.66
2023-01-04T10:08:25.964Z,99117.88
2023-01-04T10:11:06.072Z,99115.19
2023-01-04T10:13:53.714Z,99105.28
2023-01-04T10:17:01.788Z,99103.44
2023-01-04T10:22:23.536Z,99090.88
2023-01-04T10:24:59.487Z,99081.81
2023-01-04T10:27:40.848Z,99072.09
2023-01-04T10:30:25.099Z,99079.13
2023-01-04T10:32:56.763Z,99082.81
2023-01-04T10:35:27.299Z,99069.41
2023-01-04T10:38:01.668Z,99072.91
2023-01-04T10:40:30.901Z,99064.88
2023-01-04T10:43:02.751Z,99058.66
2023-01-04T10:45:37.402Z,99043.38
2023-01-04T10:48:09.912Z,99035.47
2023-01-04T10:50:42.129Z,99043.50
2023-01-04T10:53:14.545Z,99024.56
2023-01-04T10:56:23.158Z,99020.19
2023-01-04T10:58:38.348Z,99021.03
2023-01-04T11:01:11.582Z,99014.81
2023-01-04T11:03:43.353Z,98998.69
2023-01-04T11:06:15.929Z,99011.13
2023-01-04T11:08:47.423Z,98994.00
2023-01-04T11:11:19.434Z,98993.19
2023-01-04T11:13:48.157Z,98983.44
2023-01-04T11:16:18.287Z,98974.38
2023-01-04T11:18:47.174Z,98980.91
2023-01-04T11:21:16.160Z,98975.38
2023-01-04T11:23:44.866Z,98972.69
2023-01-04T11:26:15.181Z,98963.78
2023-01-04T11:28:47.780Z,98962.94
2023-01-04T11:31:24.187Z,98943.16
2023-01-04T11:33:55.149Z,98940.47
2023-01-04T11:36:45.137Z,98922.66
2023-01-04T11:39:20.443Z,98922.31
2023-01-04T11:42:03.339Z,98905.06
2023-01-04T11:44:32.968Z,98903.22
2023-01-04T11:47:11.733Z,98896.84
2023-01-04T11:49:40.247Z,98878.03
2023-01-04T11:52:12.235Z,98877.84
2023-01-04T11:54:40.802Z,98893.97
2023-01-04T11:59:47.365Z,98888.59
2023-01-04T12:05:29.005Z,98880.72
2023-01-04T12:07:59.568Z,98867.63
2023-01-04T12:10:28.977Z,98853.34
2023-01-04T12:12:58.322Z,98849.16
2023-01-04T12:15:30.788Z,98849.16
2023-01-04T12:18:03.832Z,98840.41
2023-01-04T12:20:32.591Z,98838.69
2023-01-04T12:23:01.104Z,98835.88
2023-01-04T12:25:34.309Z,98842.06
2023-01-04T12:28:02.970Z,98839.56
2023-01-04T12:30:37.462Z,98825.97
2023-01-04T12:33:42.809Z,98816.22
2023-01-04T12:36:12.163Z,98810.38
2023-01-04T12:39:04.750Z,98798.78
2023-01-04T12:42:17.922Z,98790.91
2023-01-04T12:45:21.219Z,98794.28
2023-01-04T12:48:11.515Z,98797.09
2023-01-04T12:51:33.650Z,98776.44
2023-01-04T12:54:03.945Z,98774.44
2023-01-04T12:57:23.839Z,98766.38
2023-01-04T12:59:56.851Z,98769.91
2023-01-04T13:02:26.593Z,98751.09
2023-01-04T13:05:25.695Z,98743.06
2023-01-04T13:07:48.884Z,98729.47
2023-01-04T13:10:23.436Z,98733.00
2023-01-04T13:13:31.387Z,98732.16
2023-01-04T13:16:13.263Z,98724.94
2023-01-04T13:18:43.328Z,98727.44
2023-01-04T13:21:14.236Z,98704.78
2023-01-04T13:23:49.769Z,98706.47
2023-01-04T13:26:38.870Z,98712.19
2023-01-04T13:29:09.965Z,98701.09
2023-01-04T13:31:57.963Z,98709.84
2023-01-04T13:34:29.218Z,98683.47
2023-01-04T13:37:04.751Z,98680.78
2023-01-04T13:39:35.089Z,98670.72
2023-01-04T13:42:03.730Z,98685.00
2023-01-04T13:45:21.494Z,98696.22
2023-01-04T13:47:52.108Z,98666.88
2023-01-04T13:50:32.731Z,98671.22
2023-01-04T13:53:07.678Z,98656.44
2023-01-04T13:55:39.191Z,98659.78
2023-01-04T13:58:09.116Z,98638.31
2023-01-04T14:00:44.848Z,98626.72
2023-01-04T14:03:22.687Z,98623.34
2023-01-04T14:05:52.554Z,98633.13
2023-01-04T14:08:31.257Z,98620.53
2023-01-04T14:11:01.199Z,98652.75
2023-01-04T14:13:30.035Z,98640.16
2023-01-04T14:16:12.308Z,98640.16
2023-01-04T14:18:41.245Z,98637.63
2023-01-04T14:21:17.372Z,98623.22
2023-01-04T14:23:46.315Z,98632.09
2023-01-04T14:26:36.138Z,98614.47
2023-01-04T14:29:22.968Z,98621.69
2023-01-04T14:31:52.413Z,98611.78
2023-01-04T14:34:21.010Z,98613.44
2023-01-04T14:36:49.588Z,98613.78
2023-01-04T14:39:34.031Z,98597.84
2023-01-04T14:42:07.073Z,98581.91
2023-01-04T14:44:41.261Z,98573.16
2023-01-04T14:47:12.915Z,98558.56
2023-01-04T14:49:41.782Z,98572.16
2023-01-04T14:52:12.507Z,98577.53
2023-01-04T14:54:41.241Z,98573.16
2023-01-04T14:57:12.295Z,98576.72
2023-01-04T14:59:41.193Z,98571.50
2023-01-04T15:02:11.372Z,98567.97
2023-01-04T15:04:40.203Z,98564.09
2023-01-04T15:07:08.866Z,98563.94
2023-01-04T15:09:37.470Z,98551.34
2023-01-04T15:12:06.848Z,98548.31
2023-01-04T15:14:36.911Z,98539.44
2023-01-04T15:17:05.566Z,98516.44
2023-01-04T15:19:37.685Z,98533.53
2023-01-04T15:22:07.123Z,98520.47
2023-01-04T15:24:35.719Z,98527.34
2023-01-04T15:27:04.402Z,98514.41
2023-01-04T15:29:33.114Z,98527.81
2023-01-04T15:32:03.307Z,98525.47
2023-01-04T15:34:32.021Z,98520.94
2023-01-04T15:37:00.788Z,98511.22
2023-01-04T15:39:29.493Z,98502.34
2023-01-04T15:42:15.759Z,98505.00
2023-01-04T15:44:44.827Z,98498.63
2023-01-04T15:47:14.801Z,98481.66
2023-01-04T15:49:43.429Z,98493.25
2023-01-04T15:52:12.066Z,98477.13
2023-01-04T15:54:40.599Z,98470.09
2023-01-04T15:57:09.209Z,98437.88
2023-01-04T15:59:37.885Z,98443.25
2023-01-04T16:02:06.763Z,98457.34
2023-01-04T16:04:36.982Z,98457.34
2023-01-04T16:07:05.797Z,98447.59
2023-01-04T16:09:36.564Z,98450.28
2023-01-04T16:12:23.611Z,98459.16
2023-01-04T16:14:52.537Z,98441.38
2023-01-04T16:17:21.140Z,98434.16
2023-01-04T16:19:51.015Z,98446.59
2023-01-04T16:22:19.655Z,98454.66
2023-01-04T16:27:40.269Z,98453.78
2023-01-04T16:30:12.039Z,98425.94
2023-01-04T16:32:43.465Z,98425.09
2023-01-04T16:35:13.487Z,98407.28
2023-01-04T16:37:43.126Z,98407.28
2023-01-04T16:40:13.703Z,98389.50
2023-01-04T16:42:43.099Z,98386.63
2023-01-04T16:45:12.980Z,98385.81
2023-01-04T16:47:43.185Z,98386.84
2023-01-04T16:50:13.296Z,98379.59
2023-01-04T16:52:42.126Z,98355.59
2023-01-04T16:55:11.939Z,98375.06
2023-01-04T16:57:40.723Z,98381.28
2023-01-04T17:00:11.414Z,98376.75
2023-01-04T17:02:40.362Z,98375.91
2023-01-04T17:05:10.139Z,98371.38
2023-01-04T17:07:42.477Z,98349.91
2023-01-04T17:10:11.802Z,98360.66
2023-01-04T17:12:49.235Z,98347.22
2023-01-04T17:18:07.586Z,98335.44
2023-01-04T17:20:36.254Z,98323.88
2023-01-04T17:23:06.409Z,98315.63
2023-01-04T17:25:35.199Z,98306.56
2023-01-04T17:28:05.140Z,98306.22
2023-01-04T17:30:33.836Z,98309.56
2023-01-04T17:33:02.477Z,98314.75
2023-01-04T17:35:31.337Z,98310.41
2023-01-04T17:38:00.424Z,98316.13
2023-01-04T17:40:30.691Z,98319.66
2023-01-04T17:42:59.780Z,98303.69
2023-01-04T17:45:28.657Z,98310.59
2023-01-04T17:47:57.428Z,98309.06
2023-01-04T17:50:26.113Z,98303.22
2023-01-04T17:52:54.635Z,98309.25
2023-01-04T17:55:23.438Z,98299.50
2023-01-04T17:57:53.450Z,98276.34
2023-01-04T18:00:22.437Z,98269.13
2023-01-04T18:02:51.136Z,98258.38
2023-01-04T18:05:19.995Z,98253.84
2023-01-04T18:07:48.683Z,98268.28
2023-01-04T18:10:27.165Z,98256.53
2023-01-04T18:13:07.992Z,98264.59
2023-01-04T18:15:43.908Z,98254.69
2023-01-04T18:18:24.171Z,98244.78
2023-01-04T18:20:54.083Z,98242.09
2023-01-04T18:23:25.677Z,98225.97
2023-01-04T18:25:54.921Z,98232.19
2023-01-04T18:28:24.852Z,98212.56
2023-01-04T18:30:53.883Z,98226.81
2023-01-04T18:33:22.654Z,98225.78
2023-01-04T18:35:51.291Z,98224.13
2023-01-04T18:38:19.967Z,98216.91
2023-01-04T18:40:48.663Z,98220.63
2023-01-04T18:43:17.304Z,98209.88
2023-01-04T18:45:47.491Z,98219.59
2023-01-04T18:48:16.309Z,98214.06
2023-01-04T18:50:45.336Z,98207.00
2023-01-04T18:53:14.617Z,98188.03
2023-01-04T18:55:43.455Z,98196.91
2023-01-04T18:58:12.204Z,98189.88
2023-01-04T19:00:40.813Z,98202.63
2023-01-04T19:03:16.396Z,98206.16
2023-01-04T19:05:46.931Z,98206.34
2023-01-04T19:08:15.623Z,98198.09
2023-01-04T19:10:44.332Z,98203.47
2023-01-04T19:13:12.955Z,98197.06
2023-01-04T19:15:47.772Z,98172.91
2023-01-04T19:18:18.103Z,98192.56
2023-01-04T19:20:46.908Z,98169.22
2023-01-04T19:23:15.684Z,98172.91
2023-01-04T19:25:44.437Z,98159.66
2023-01-04T19:28:13.325Z,98150.78
2023-01-04T19:30:42.315Z,98139.53
2023-01-04T19:33:11.558Z,98153.16
2023-01-04T19:35:43.836Z,98155.66
2023-01-04T19:38:12.763Z,98144.91
2023-01-04T19:40:41.549Z,98137.88
2023-01-04T19:43:10.333Z,98138.03
2023-01-04T19:45:39.434Z,98120.94
2023-01-04T19:48:08.637Z,98136.22
2023-01-04T19:50:37.231Z,98137.03
2023-01-04T19:53:07.179Z,98129.00
2023-01-04T19:55:35.891Z,98117.13
2023-01-04T19:58:04.472Z,98116.28
2023-01-04T20:00:33.112Z,98118.97
2023-01-04T20:03:02.011Z,98101.00
2023-01-04T20:08:03.133Z,98124.97
2023-01-04T20:10:33.095Z,98110.56
2023-01-04T20:15:30.384Z,98136.53
2023-01-04T20:17:59.104Z,98137.78
2023-01-04T20:20:27.682Z,98130.03
2023-01-04T20:22:56.550Z,98119.31
2023-01-04T20:25:25.145Z,98114.91
2023-01-04T20:27:55.238Z,98104.50
2023-01-04T20:30:23.900Z,98103.50
2023-01-04T20:32:52.701Z,98101.63
2023-01-04T20:35:21.341Z,98093.56
2023-01-04T20:37:53.800Z,98089.06
2023-01-04T20:40:22.472Z,98091.75
2023-01-04T20:43:08.516Z,98097.13
2023-01-04T20:45:42.446Z,98085.53
2023-01-04T20:48:11.336Z,98085.34
2023-01-04T20:50:40.142Z,98072.09
2023-01-04T20:53:08.880Z,98087.22
2023-01-04T20:55:40.347Z,98073.78
2023-01-04T21:00:39.934Z,98062.22
2023-01-04T21:03:09.989Z,98062.22
2023-01-04T21:08:07.300Z,98057.84
2023-01-04T21:10:36.046Z,98046.09
2023-01-04T21:13:05.141Z,98039.88
2023-01-04T21:15:33.782Z,98030.81
2023-01-04T21:18:03.882Z,98025.44
2023-01-04T21:20:32.675Z,98038.88
2023-01-04T21:23:01.380Z,98027.28
2023-01-04T21:25:30.012Z,98017.56
2023-01-04T21:28:00.810Z,98024.63
2023-01-04T21:30:29.463Z,98015.91
2023-01-04T21:33:01.916Z,98033.50
2023-01-04T21:38:00.629Z,98015.69
2023-01-04T21:40:29.239Z,98037.00
2023-01-04T21:42:58.545Z,98024.63
2023-01-04T21:45:27.333Z,98028.28
2023-01-04T21:47:56.519Z,98016.56
2023-01-04T21:50:30.656Z,98013.00
2023-01-04T21:53:00.656Z,97986.00
2023-01-04T21:55:34.554Z,97981.28
2023-01-04T21:58:03.990Z,97961.81
2023-01-04T22:00:32.749Z,97969.88
2023-01-04T22:03:01.490Z,97980.63
2023-01-04T22:05:30.626Z,97987.66
2023-01-04T22:08:00.850Z,97975.91
2023-01-04T22:10:29.507Z,97970.53
2023-01-04T22:12:58.052Z,97972.56
2023-01-04T22:15:26.884Z,97980.78
2023-01-04T22:17:55.641Z,97953.47
2023-01-04T22:20:24.400Z,97970.41
2023-01-04T22:22:53.190Z,97968.75
2023-01-04T22:25:23.269Z,97964.50
2023-01-04T22:27:52.083Z,97957.47
2023-01-04T22:30:20.951Z,97950.25
2023-01-04T22:32:49.922Z,97951.06
2023-01-04T22:35:19.220Z,97969.88
2023-01-04T22:37:48.725Z,97957.47
2023-01-04T22:40:17.414Z,97949.03
2023-01-04T22:42:47.491Z,97951.06
2023-01-04T22:50:13.723Z,97903.28
2023-01-04T22:52:47.364Z,97923.75
2023-01-04T22:55:19.799Z,97928.31
2023-01-04T22:57:50.157Z,97927.44
2023-01-04T23:00:18.825Z,97928.31
2023-01-04T23:02:47.696Z,97915.06
2023-01-04T23:05:16.834Z,97935.50
2023-01-04T23:07:45.625Z,97935.50
2023-01-04T23:10:14.472Z,97920.41
2023-01-04T23:12:43.212Z,97916.72
2023-01-04T23:15:13.979Z,97897.09
2023-01-04T23:17:43.022Z,97891.72
2023-01-04T23:20:18.544Z,97888.19
2023-01-04T23:22:49.276Z,97887.38
2023-01-04T23:25:18.170Z,97872.91
2023-01-04T23:27:46.823Z,97868.56
2023-01-04T23:30:17.709Z,97879.31
2023-01-04T23:32:47.551Z,97868.56
2023-01-04T23:35:17.307Z,97864.03
2023-01-04T23:37:46.150Z,97863.22
2023-01-04T23:40:14.878Z,97853.47
2023-01-04T23:42:43.650Z,97849.94
2023-01-04T23:45:12.556Z,97842.72
2023-01-04T23:47:42.526Z,97830.97
2023-01-04T23:50:11.625Z,97836.34
2023-01-04T23:52:40.462Z,97831.97
2023-01-04T23:55:09.940Z,97843.59
2023-01-04T23:57:38.679Z,97831.97
